首页
METAR-TAF:

METAR-TAF

机场 :

卡斯尔加, 不列颠哥伦比亚, 加拿大

纬度: 49-18N, 经度: 117-38W, 海拔: 495米

当前天气观测

该预报发布于34分钟前的15:00 UTC
风速6节,风向东北,在之间变化
温度 17°C
湿度 45%
气压 1011 hPa
能見度: 24.1公里
散云层高于20000英尺

METAR: CYCG 121500Z 04006KT 350V080 15SM SCT200 17/05 A2984 RMK CI2 SLP099 DENSITY ALT 2400FT

时间: 08:34 (15:34 UTC)

预报

该预报发布于14小时和56分钟前的00:38 UTC
预报有效从12日的 01点(UTC)到 12日的 04点(UTC)
风速8节,风向南转西南
能見度: 10公里
少量云层高于8000英尺
散云层高于14000英尺
多云层高于17000英尺

TAF: CYCG 120038Z 1201/1204 20008KT P6SM FEW080 SCT140 BKN170 RMK NXT FCST WILL BE ISSUED AT 121445Z

超过4000个机场的气象观测和天气预报(METAR&TAF报告)。

可查询的气象台以黄色和红色小点在地图上表示。

将鼠标移到小点上方,可查看气象台名称。

然后点击查看天气观测和预报。

如需切换地图:点击带黑十字的绿色按钮放大地图;点击带横线的绿色按钮缩小地图;或者点击绿色箭头查看邻近地区的地图。


METAR-TAF: